Thunder radar more information blitzortung!


Radar de pluja more information rain snow radar


Visita la nostra xarxa de llocs de meteo:

Template documentation
and downloads

And another site



No particular awareness of the weather is required.    There are no Weather-warnings

Pagina Historial Weather Underground text

Diari Resum Desembre 19, 2017 Unitats:  Imperial    Mètric   Tant
« Previous Dia
SegĂźent Dia »
Diari Setmana Mensual Anual Personalitzada
  Maxima: Minima: Media:
Temperatura: TemperatureC °F 0.0 °F 6.5 °F
Punt de rosada: DewpointC °F -4.6 °F -0.1 °F
Humitat: Humidity % 55 % 63 %
Wind Speed: WindSpeedKMH mph 0.0 mph 2.1 mph
RĂ fegues de vent: WindSpeedGustKMH mph - -
Vent:- - South
Pression baro: PressurehPa in 1022.9 in -
Precipitacions: 0.0 in    
Historical Graphs
 
 
Dades de taula per Desembre 19, 2017
Temps Temperatura Punt de rosada Pression baro Vent Wind Speed RĂ fegues de vent Humitat Rainfall Rate (Hourly)
TemperatureC °F DewpointC °F PressurehPa in Calm     Humidity % HourlyPrecipMM in
00:00 1.0 °F -3.5 °F 1027.0 in Calm   3.2 mph 72 % 0.0 in
00:01 3.6 °F -2.6 °F 1022.9 in Calm     64 % 0.0 in
00:06 3.6 °F -2.6 °F 1022.9 in Calm     64 % 0.0 in
00:10 0.7 °F -3.9 °F 1027.0 in NE 1.6 mph 3.2 mph 71 % 0.0 in
00:20 0.9 °F -3.8 °F 1027.0 in NNW 3.2 mph 3.2 mph 71 % 0.0 in
00:30 1.0 °F -3.5 °F 1027.0 in North 1.6 mph 4.8 mph 72 % 0.0 in
00:40 1.2 °F -3.5 °F 1028.0 in NNE 1.6 mph 4.8 mph 71 % 0.0 in
00:50 1.2 °F -3.5 °F 1028.0 in Calm   3.2 mph 71 % 0.0 in
01:00 1.2 °F -3.3 °F 1028.0 in ESE 1.6 mph 3.2 mph 72 % 0.0 in
01:10 1.0 °F -3.7 °F 1027.0 in Calm   1.6 mph 71 % 0.0 in
01:20 0.7 °F -3.9 °F 1028.0 in West 1.6 mph 3.2 mph 71 % 0.0 in
01:30 0.7 °F -3.9 °F 1028.0 in Calm     71 % 0.0 in
01:40 0.7 °F -3.9 °F 1029.0 in Calm   1.6 mph 71 % 0.0 in
01:50 0.4 °F -4.3 °F 1029.0 in WSW 1.6 mph 3.2 mph 71 % 0.0 in
02:00 0.0 °F -4.6 °F 1029.0 in WSW 1.6 mph 3.2 mph 71 % 0.0 in
02:10 0.0 °F -4.4 °F 1029.0 in Calm     72 % 0.0 in
02:20 0.2 °F -4.3 °F 1030.0 in Calm   1.6 mph 72 % 0.0 in
02:30 0.1 °F -4.2 °F 1030.0 in West 3.2 mph 3.2 mph 73 % 0.0 in
02:40 0.4 °F -3.9 °F 1030.0 in Calm   1.6 mph 73 % 0.0 in
02:50 0.8 °F -3.5 °F 1030.0 in West 1.6 mph 3.2 mph 73 % 0.0 in
03:00 1.2 °F -2.9 °F 1030.0 in Calm   3.2 mph 74 % 0.0 in
03:10 1.5 °F -2.6 °F 1030.0 in Calm   3.2 mph 74 % 0.0 in
03:20 2.0 °F -2.2 °F 1030.0 in WSW 1.6 mph 1.6 mph 74 % 0.0 in
03:30 2.7 °F -1.5 °F 1030.0 in Calm   1.6 mph 74 % 0.0 in
03:40 3.0 °F -1.4 °F 1030.0 in SE 1.6 mph 3.2 mph 73 % 0.0 in
03:50 3.2 °F -1.6 °F 1030.0 in ESE 1.6 mph 3.2 mph 71 % 0.0 in
04:00 3.5 °F -1.4 °F 1030.0 in South 1.6 mph 1.6 mph 70 % 0.0 in
06:20 7.6 °F 0.6 °F 1030.7 in WSW 4.8 mph 8.0 mph 61 % 0.0 in
06:30 7.9 °F 0.6 °F 1030.7 in NNE 4.8 mph 8.0 mph 60 % 0.0 in
06:40 8.2 °F 0.7 °F 1030.7 in NNE 4.8 mph 6.4 mph 59 % 0.0 in
07:00 8.4 °F 0.4 °F 1030.0 in NE 9.7 mph 9.7 mph 57 % 0.0 in
07:10 8.8 °F 0.7 °F 1030.0 in NE 4.8 mph 9.7 mph 57 % 0.0 in
07:20 9.0 °F 0.7 °F 1030.0 in NE 4.8 mph 6.4 mph 56 % 0.0 in
07:30 9.3 °F 0.9 °F 1030.0 in ENE 4.8 mph 4.8 mph 56 % 0.0 in
07:40 9.6 °F 1.2 °F 1030.0 in ENE 3.2 mph 4.8 mph 56 % 0.0 in
07:50 9.7 °F 1.3 °F 1030.0 in ENE 1.6 mph 4.8 mph 56 % 0.0 in
08:00 9.9 °F 1.8 °F 1030.0 in NE 1.6 mph 4.8 mph 57 % 0.0 in
08:10 9.9 °F 1.5 °F 1029.0 in NE 1.6 mph 4.8 mph 56 % 0.0 in
08:20 10.1 °F 1.7 °F 1030.0 in ENE 1.6 mph 6.4 mph 56 % 0.0 in
08:30 10.1 °F 1.7 °F 1030.0 in East 4.8 mph 4.8 mph 56 % 0.0 in
08:40 10.2 °F 1.8 °F 1030.0 in East 4.8 mph 6.4 mph 56 % 0.0 in
08:50 10.6 °F 2.4 °F 1030.0 in East 1.6 mph 3.2 mph 57 % 0.0 in
09:00 11.0 °F 2.6 °F 1030.0 in South 3.2 mph 6.4 mph 56 % 0.0 in
09:10 11.2 °F 2.5 °F 1030.0 in South 3.2 mph 3.2 mph 55 % 0.0 in
09:20 11.2 °F 2.7 °F 1030.0 in Calm   3.2 mph 56 % 0.0 in
09:30 11.3 °F 2.6 °F 1030.0 in SSW 1.6 mph 3.2 mph 55 % 0.0 in
09:40 11.1 °F 2.4 °F 1030.0 in SW 3.2 mph 3.2 mph 55 % 0.0 in
09:50 10.9 °F 2.2 °F 1030.0 in SSW 1.6 mph 6.4 mph 55 % 0.0 in
10:00 10.8 °F 2.1 °F 1030.0 in Calm   3.2 mph 55 % 0.0 in
10:08 4.2 °F -0.8 °F 1030.7 in SSE 1.9 mph   70 % 0.0 in
10:13 4.3 °F -0.9 °F 1030.7 in ESE 3.7 mph 3.7 mph 69 % 0.0 in
10:15 4.3 °F -1.1 °F 1030.7 in South 4.2 mph 4.2 mph 68 % 0.0 in
10:20 4.4 °F -1.0 °F 1030.7 in NNE 2.3 mph 2.3 mph 68 % 0.0 in
10:21 4.3 °F -1.1 °F 1030.7 in NNE 3.7 mph 3.7 mph 68 % 0.0 in
10:25 4.6 °F -0.8 °F 1030.7 in Calm     68 % 0.0 in
10:26 5.0 °F -0.2 °F 1030.7 in ESE 2.6 mph   69 % 0.0 in
10:31 4.7 °F -0.9 °F 1030.7 in East 3.7 mph 3.7 mph 67 % 0.0 in
10:33 4.8 °F -0.8 °F 1030.7 in ENE 3.7 mph 3.7 mph 67 % 0.0 in
10:34 4.8 °F -0.8 °F 1030.7 in ENE 3.7 mph 3.7 mph 67 % 0.0 in
10:39 4.9 °F -0.7 °F 1030.7 in East 3.9 mph 3.9 mph 67 % 0.0 in
10:40 4.9 °F -0.7 °F 1030.7 in East 3.2 mph 4.8 mph 67 % 0.0 in
10:45 4.9 °F -0.7 °F 1030.7 in ESE 7.4 mph 7.4 mph 67 % 0.0 in
10:50 4.8 °F -1.0 °F 1030.7 in ENE 3.7 mph 3.7 mph 66 % 0.0 in
10:51 4.8 °F -1.0 °F 1030.7 in East 3.9 mph 3.9 mph 66 % 0.0 in
10:55 5.0 °F -0.8 °F 1032.1 in NNE 5.6 mph 5.6 mph 66 % 0.0 in
10:56 5.0 °F -0.8 °F 1032.1 in ENE 5.6 mph 5.6 mph 66 % 0.0 in
11:01 5.2 °F -0.7 °F 1032.1 in NE 5.6 mph 5.6 mph 66 % 0.0 in
11:02 5.1 °F -0.9 °F 1032.1 in NNE 5.6 mph 5.6 mph 65 % 0.0 in
11:07 5.4 °F -0.7 °F 1032.1 in ENE 5.6 mph 5.6 mph 65 % 0.0 in
11:09 5.5 °F -0.6 °F 1032.1 in ENE 3.7 mph 4.2 mph 65 % 0.0 in
11:10 5.7 °F -0.4 °F 1032.1 in NE 3.7 mph 3.7 mph 65 % 0.0 in
11:14 5.9 °F -0.2 °F 1032.1 in NNE 5.6 mph 5.6 mph 65 % 0.0 in
11:19 6.1 °F -0.2 °F 1032.1 in ESE 3.7 mph 3.7 mph 64 % 0.0 in
11:24 6.4 °F 0.1 °F 1032.1 in NE 3.7 mph 3.7 mph 64 % 0.0 in
11:27 6.4 °F 0.1 °F 1030.7 in NNE 3.7 mph 3.7 mph 64 % 0.0 in
11:32 6.3 °F -0.2 °F 1030.7 in ESE 7.4 mph 7.4 mph 63 % 0.0 in
11:33 6.4 °F -0.1 °F 1030.7 in ENE 5.6 mph 5.6 mph 63 % 0.0 in
11:38 6.5 °F -0.1 °F 1030.7 in ENE 7.4 mph 7.4 mph 63 % 0.0 in
11:39 6.5 °F -0.1 °F 1030.7 in ENE 5.6 mph 5.6 mph 63 % 0.0 in
11:42 6.8 °F 0.2 °F 1030.7 in NNE 7.4 mph 7.4 mph 63 % 0.0 in
11:44 6.8 °F 0.2 °F 1030.7 in West 3.7 mph 3.7 mph 63 % 0.0 in
11:48 7.0 °F 0.4 °F 1030.7 in ENE 5.6 mph 5.6 mph 63 % 0.0 in
11:51 7.0 °F 0.2 °F 1030.7 in NE 5.6 mph 5.6 mph 62 % 0.0 in
11:56 7.3 °F 0.5 °F 1030.7 in North 7.4 mph 7.4 mph 62 % 0.0 in
11:57 7.3 °F 0.5 °F 1030.7 in ENE 3.7 mph 3.7 mph 62 % 0.0 in
11:58 7.3 °F 0.5 °F 1030.7 in ENE 3.9 mph 3.9 mph 62 % 0.0 in
12:03 7.3 °F 0.3 °F 1030.7 in NE 9.3 mph 9.3 mph 61 % 0.0 in
12:07 7.4 °F 0.4 °F 1030.7 in ENE 9.7 mph 9.7 mph 61 % 0.0 in
12:08 7.3 °F 0.3 °F 1030.7 in NNE 9.3 mph 9.3 mph 61 % 0.0 in
16:04 10.8 °F 2.1 °F 1030.0 in WSW 1.9 mph 1.9 mph 55 % 0.0 in
16:05 10.8 °F 2.1 °F 1030.0 in WSW 5.6 mph 5.6 mph 55 % 0.0 in
16:07 10.7 °F 2.0 °F 1030.0 in SSW 1.9 mph 2.3 mph 55 % 0.0 in
16:12 10.7 °F 2.0 °F 1030.0 in WSW 1.9 mph   55 % 0.0 in
16:17 10.7 °F 2.0 °F 1030.0 in Calm     55 % 0.0 in
16:22 10.6 °F 1.9 °F 1030.0 in Calm     55 % 0.0 in
16:23 10.6 °F 1.9 °F 1030.0 in Calm     55 % 0.0 in
16:28 10.6 °F 1.9 °F 1030.0 in Calm     55 % 0.0 in
16:30 10.6 °F 1.9 °F 1030.0 in Calm     55 % 0.0 in
16:34 10.6 °F 1.9 °F 1030.0 in Calm     55 % 0.0 in
16:35 10.5 °F 1.8 °F 1030.0 in Calm     55 % 0.0 in
16:40 10.5 °F 2.1 °F 1030.0 in Calm     56 % 0.0 in
16:45 10.4 °F 2.0 °F 1029.0 in West 1.9 mph 1.9 mph 56 % 0.0 in
16:46 10.3 °F 1.9 °F 1029.0 in West 1.9 mph 1.9 mph 56 % 0.0 in
16:51 10.2 °F 1.8 °F 1029.0 in NW 1.9 mph 1.9 mph 56 % 0.0 in
16:52 10.1 °F 1.7 °F 1029.0 in NW 1.9 mph 1.9 mph 56 % 0.0 in
16:57 9.9 °F 1.5 °F 1030.0 in NW 1.9 mph 1.9 mph 56 % 0.0 in
17:02 9.8 °F 1.4 °F 1030.0 in NW 1.9 mph 1.9 mph 56 % 0.0 in
17:04 9.7 °F 1.3 °F 1030.0 in NW 1.9 mph 1.9 mph 56 % 0.0 in
17:09 9.6 °F 1.5 °F 1030.0 in NW 1.9 mph 1.9 mph 57 % 0.0 in
17:10 9.6 °F 1.5 °F 1030.0 in NW 1.9 mph 1.9 mph 57 % 0.0 in
17:11 9.6 °F 1.5 °F 1030.0 in NW 1.9 mph 1.9 mph 57 % 0.0 in
17:16 9.5 °F 1.4 °F 1030.0 in NW 1.9 mph 1.9 mph 57 % 0.0 in
17:20 5.7 °F -0.6 °F 1032.1 in Calm   6.4 mph 64 % 0.0 in
17:21 9.4 °F 1.3 °F 1030.0 in NW 1.9 mph 1.9 mph 57 % 0.0 in
17:22 9.4 °F 1.3 °F 1030.0 in NW 1.9 mph 1.9 mph 57 % 0.0 in
17:23 9.4 °F 1.3 °F 1030.0 in NW 1.9 mph 1.9 mph 57 % 0.0 in
17:28 9.4 °F 1.3 °F 1030.0 in NW 1.9 mph 1.9 mph 57 % 0.0 in
17:29 9.4 °F 1.3 °F 1030.0 in NW 1.9 mph 1.9 mph 57 % 0.0 in
17:30 5.3 °F -0.9 °F 1032.1 in NNE 3.2 mph 3.2 mph 64 % 0.0 in
17:34 9.3 °F 1.4 °F 1030.0 in NW 1.9 mph 1.9 mph 58 % 0.0 in
17:37 9.2 °F 1.3 °F 1030.0 in NW 1.9 mph 1.9 mph 58 % 0.0 in
17:39 9.2 °F 1.3 °F 1030.0 in NW 1.9 mph 1.9 mph 58 % 0.0 in
17:40 5.0 °F -1.3 °F 1032.1 in NNE 1.6 mph 3.2 mph 64 % 0.0 in
17:44 9.1 °F 1.3 °F 1030.7 in NW 1.9 mph 1.9 mph 58 % 0.0 in
17:45 9.1 °F 1.3 °F 1030.7 in NW 1.9 mph 1.9 mph 58 % 0.0 in
17:50 9.0 °F 1.4 °F 1030.7 in NW 1.9 mph 1.9 mph 59 % 0.0 in
17:54 9.0 °F 1.4 °F 1030.7 in NW 1.9 mph 1.9 mph 59 % 0.0 in
17:57 9.0 °F 1.4 °F 1030.7 in NW 1.9 mph 1.9 mph 59 % 0.0 in
18:00 4.4 °F -1.6 °F 1032.1 in NNE 1.6 mph 1.6 mph 65 % 0.0 in
18:02 8.9 °F 1.3 °F 1030.7 in NW 1.9 mph 1.9 mph 59 % 0.0 in
18:06 8.8 °F 1.2 °F 1030.7 in NW 1.9 mph 1.9 mph 59 % 0.0 in
18:08 8.8 °F 1.2 °F 1030.7 in NW 1.9 mph 1.9 mph 59 % 0.0 in
18:10 4.3 °F -1.5 °F 1032.1 in NNE 1.6 mph 3.2 mph 66 % 0.0 in
18:13 8.7 °F 1.3 °F 1030.7 in ENE 3.7 mph 3.7 mph 60 % 0.0 in
18:14 8.7 °F 1.3 °F 1030.7 in ENE 5.0 mph 5.0 mph 60 % 0.0 in
18:17 8.7 °F 1.3 °F 1030.7 in ENE 3.7 mph 3.9 mph 60 % 0.0 in
18:19 8.7 °F 1.3 °F 1030.7 in WNW 3.7 mph 3.7 mph 60 % 0.0 in
18:20 4.1 °F -1.7 °F 1030.7 in NNE 4.8 mph 4.8 mph 66 % 0.0 in
18:24 8.6 °F 1.3 °F 1030.7 in WNW 3.7 mph 3.7 mph 60 % 0.0 in
18:25 8.6 °F 1.3 °F 1030.7 in NNW 1.6 mph 4.8 mph 60 % 0.0 in
18:30 8.6 °F 1.3 °F 1030.7 in NW 1.6 mph 3.2 mph 60 % 0.0 in
18:35 8.5 °F 1.2 °F 1030.7 in WNW 4.2 mph 4.2 mph 60 % 0.0 in
18:36 8.5 °F 1.2 °F 1030.7 in WNW 4.2 mph 4.2 mph 60 % 0.0 in
18:40 8.5 °F 1.2 °F 1030.7 in West 3.7 mph 3.7 mph 60 % 0.0 in
18:41 8.5 °F 1.2 °F 1030.7 in West 1.9 mph 1.9 mph 60 % 0.0 in
18:46 8.4 °F 1.1 °F 1030.7 in NW 2.6 mph   60 % 0.0 in
18:50 3.5 °F -2.1 °F 1032.1 in NW 3.2 mph 3.2 mph 67 % 0.0 in
18:51 8.3 °F 1.0 °F 1030.7 in West 1.9 mph   60 % 0.0 in
18:54 8.3 °F 1.0 °F 1030.7 in NNE 2.6 mph   60 % 0.0 in
18:59 8.3 °F 1.0 °F 1032.1 in WNW 2.6 mph 2.6 mph 60 % 0.0 in
19:00 8.3 °F 1.0 °F 1032.1 in WNW 2.6 mph 2.6 mph 60 % 0.0 in
19:05 8.3 °F 1.2 °F 1032.1 in WNW 2.6 mph 2.6 mph 61 % 0.0 in
19:06 8.3 °F 1.2 °F 1032.1 in WNW 2.6 mph 2.6 mph 61 % 0.0 in
19:10 3.3 °F -2.1 °F 1030.7 in Calm   3.2 mph 68 % 0.0 in
19:11 8.3 °F 1.2 °F 1032.1 in WNW 2.6 mph 2.6 mph 61 % 0.0 in
19:12 8.3 °F 1.2 °F 1032.1 in WNW 2.6 mph 2.6 mph 61 % 0.0 in
19:16 8.2 °F 1.1 °F 1032.1 in Calm     61 % 0.0 in
19:19 8.2 °F 1.1 °F 1032.1 in NNW 2.3 mph   61 % 0.0 in
19:20 3.3 °F -2.1 °F 1032.1 in Calm     68 % 0.0 in
19:22 8.1 °F 1.0 °F 1032.1 in NW 3.7 mph   61 % 0.0 in
19:26 8.0 °F 0.9 °F 1032.1 in NE 3.7 mph 3.7 mph 61 % 0.0 in
19:28 8.0 °F 0.9 °F 1032.1 in NE 3.7 mph 3.7 mph 61 % 0.0 in
19:30 3.3 °F -1.8 °F 1032.1 in Calm   3.2 mph 69 % 0.0 in
19:33 7.9 °F 0.8 °F 1032.1 in NE 4.7 mph 4.7 mph 61 % 0.0 in
19:35 7.9 °F 0.8 °F 1032.1 in NW 2.3 mph 2.6 mph 61 % 0.0 in
19:37 7.9 °F 0.8 °F 1032.1 in NW 2.3 mph 2.6 mph 61 % 0.0 in
19:40 3.2 °F -1.9 °F 1032.1 in SE 1.6 mph 4.8 mph 69 % 0.0 in
19:42 7.8 °F 0.7 °F 1032.1 in Calm   1.9 mph 61 % 0.0 in
19:44 7.8 °F 0.7 °F 1032.1 in West 1.9 mph 1.9 mph 61 % 0.0 in
19:45 7.7 °F 0.7 °F 1032.1 in West 1.9 mph 1.9 mph 61 % 0.0 in
19:49 7.6 °F 0.6 °F 1032.1 in Calm     61 % 0.0 in
19:50 3.2 °F -1.7 °F 1032.1 in ENE 1.6 mph 1.6 mph 70 % 0.0 in
19:51 7.6 °F 0.6 °F 1032.1 in Calm     61 % 0.0 in
19:55 7.3 °F 0.3 °F 1032.1 in Calm     61 % 0.0 in
19:59 7.3 °F 0.5 °F 1032.1 in Calm     62 % 0.0 in
20:00 3.3 °F -1.7 °F 1032.1 in Calm   3.2 mph 70 % 0.0 in
20:01 7.3 °F 0.5 °F 1032.1 in Calm     62 % 0.0 in
20:06 7.3 °F 0.5 °F 1032.1 in Calm     62 % 0.0 in
20:08 7.3 °F 0.5 °F 1032.1 in Calm     62 % 0.0 in
20:10 3.2 °F -1.9 °F 1032.1 in SSE 1.6 mph 3.2 mph 69 % 0.0 in
20:13 7.3 °F 0.5 °F 1032.1 in Calm     62 % 0.0 in
20:15 7.3 °F 0.7 °F 1032.1 in Calm     63 % 0.0 in
20:20 7.2 °F 0.4 °F 1032.1 in Calm     62 % 0.0 in
20:21 7.2 °F 0.4 °F 1032.1 in Calm     62 % 0.0 in
20:26 7.1 °F 0.5 °F 1032.1 in Calm   1.9 mph 63 % 0.0 in
20:30 3.2 °F -1.9 °F 1032.1 in Calm   3.2 mph 69 % 0.0 in
20:32 7.1 °F 0.5 °F 1032.1 in Calm     63 % 0.0 in
20:37 7.0 °F 0.4 °F 1032.1 in Calm     63 % 0.0 in
20:40 7.1 °F 0.5 °F 1032.1 in NW 1.9 mph 2.6 mph 63 % 0.0 in
20:42 7.1 °F 0.5 °F 1032.1 in NW 1.9 mph 2.6 mph 63 % 0.0 in
20:47 7.1 °F 0.5 °F 1032.1 in NW 1.9 mph 2.6 mph 63 % 0.0 in
20:48 7.1 °F 0.5 °F 1032.1 in NW 1.9 mph 2.6 mph 63 % 0.0 in
20:49 7.1 °F 0.5 °F 1032.1 in NW 1.9 mph 2.6 mph 63 % 0.0 in
20:54 7.1 °F 0.5 °F 1032.1 in NW 1.9 mph 1.9 mph 63 % 0.0 in
20:55 7.1 °F 0.5 °F 1032.1 in NW 1.9 mph 1.9 mph 63 % 0.0 in
21:00 7.0 °F 0.4 °F 1030.7 in Calm     63 % 0.0 in
21:05 7.0 °F 0.4 °F 1030.7 in ENE 3.2 mph 4.8 mph 63 % 0.0 in
21:06 7.0 °F 0.4 °F 1030.7 in ESE 3.9 mph 3.9 mph 63 % 0.0 in
21:10 7.0 °F 0.4 °F 1032.1 in NW 1.9 mph 1.9 mph 63 % 0.0 in
21:15 6.8 °F 0.2 °F 1032.1 in Calm     63 % 0.0 in
21:17 6.8 °F 0.2 °F 1032.1 in Calm     63 % 0.0 in
21:20 2.9 °F -1.8 °F 1030.7 in Calm   3.2 mph 71 % 0.0 in
21:22 6.7 °F 0.2 °F 1032.1 in Calm     63 % 0.0 in
21:24 6.7 °F 0.2 °F 1032.1 in Calm     63 % 0.0 in
21:27 6.7 °F 0.2 °F 1032.1 in Calm     63 % 0.0 in
21:30 2.8 °F -1.9 °F 1030.7 in Calm     71 % 0.0 in
21:32 6.6 °F 0.1 °F 1032.1 in Calm     63 % 0.0 in
21:37 6.5 °F 0.2 °F 1032.1 in NNE 2.3 mph 2.3 mph 64 % 0.0 in
21:40 2.8 °F -1.8 °F 1032.1 in Calm     72 % 0.0 in
21:42 6.5 °F 0.2 °F 1032.1 in ENE 2.6 mph 2.6 mph 64 % 0.0 in
21:44 6.4 °F 0.1 °F 1032.1 in NNE 3.9 mph 3.9 mph 64 % 0.0 in
21:49 6.4 °F 0.1 °F 1032.1 in WNW 1.9 mph   64 % 0.0 in
21:50 6.4 °F 0.1 °F 1032.1 in Calm   3.2 mph 64 % 0.0 in
21:55 6.3 °F 0.0 °F 1032.1 in West 1.9 mph   64 % 0.0 in
22:00 6.3 °F -0.2 °F 1032.7 in North 1.9 mph 2.3 mph 63 % 0.0 in
22:02 6.3 °F 0.0 °F 1032.7 in Calm     64 % 0.0 in
22:03 6.3 °F 0.0 °F 1032.7 in NE 3.9 mph 3.9 mph 64 % 0.0 in
22:07 6.2 °F -0.1 °F 1032.7 in NE 3.9 mph 3.9 mph 64 % 0.0 in
22:09 6.2 °F -0.1 °F 1032.7 in NE 3.9 mph 3.9 mph 64 % 0.0 in
22:10 2.2 °F -2.3 °F 1032.1 in Calm   1.6 mph 72 % 0.0 in
22:14 6.2 °F -0.1 °F 1032.1 in NNE 1.9 mph 3.2 mph 64 % 0.0 in
22:16 6.2 °F -0.1 °F 1032.1 in NNW 1.9 mph 1.9 mph 64 % 0.0 in
22:18 6.2 °F -0.1 °F 1032.1 in North 2.6 mph   64 % 0.0 in
22:20 2.1 °F -2.6 °F 1032.1 in Calm     71 % 0.0 in
22:21 6.2 °F -0.1 °F 1032.1 in Calm     64 % 0.0 in
22:25 6.2 °F -0.1 °F 1032.1 in North 3.9 mph 3.9 mph 64 % 0.0 in
22:27 6.2 °F -0.1 °F 1032.1 in NNE 3.7 mph 3.7 mph 64 % 0.0 in
22:30 2.1 °F -2.4 °F 1032.1 in Calm   1.6 mph 72 % 0.0 in
22:32 6.1 °F -0.2 °F 1032.1 in Calm     64 % 0.0 in
22:37 6.1 °F -0.2 °F 1032.1 in Calm     64 % 0.0 in
22:38 6.1 °F -0.2 °F 1032.1 in ENE 1.4 mph   64 % 0.0 in
22:40 2.1 °F -2.2 °F 1030.7 in West 1.6 mph 1.6 mph 73 % 0.0 in
22:43 6.0 °F -0.3 °F 1032.1 in NE 1.9 mph   64 % 0.0 in
22:48 6.0 °F -0.3 °F 1032.1 in Calm   1.4 mph 64 % 0.0 in
22:50 2.0 °F -2.5 °F 1030.7 in NW 1.6 mph 1.6 mph 72 % 0.0 in
22:53 6.0 °F -0.3 °F 1032.1 in NE 1.9 mph   64 % 0.0 in
22:54 6.0 °F -0.3 °F 1032.1 in Calm     64 % 0.0 in
22:57 6.0 °F -0.3 °F 1032.1 in Calm     64 % 0.0 in
23:00 6.0 °F -0.3 °F 1032.1 in Calm     64 % 0.0 in
23:05 6.0 °F -0.3 °F 1032.1 in Calm     64 % 0.0 in
23:10 6.0 °F -0.3 °F 1032.1 in Calm     64 % 0.0 in
23:11 6.0 °F -0.3 °F 1032.1 in Calm     64 % 0.0 in
23:16 6.0 °F -0.3 °F 1032.1 in Calm     64 % 0.0 in
23:20 2.1 °F -2.2 °F 1030.7 in Calm     73 % 0.0 in
23:21 6.0 °F -0.3 °F 1032.1 in Calm     64 % 0.0 in
23:22 6.0 °F -0.3 °F 1032.1 in Calm     64 % 0.0 in
23:27 6.0 °F -0.3 °F 1032.1 in Calm     64 % 0.0 in
23:29 6.0 °F -0.3 °F 1032.1 in Calm     64 % 0.0 in
23:30 1.8 °F -2.3 °F 1030.7 in North 1.6 mph 3.2 mph 74 % 0.0 in
23:32 6.0 °F -0.3 °F 1032.1 in Calm     64 % 0.0 in
23:34 6.0 °F -0.3 °F 1032.1 in Calm     64 % 0.0 in
23:39 6.0 °F -0.3 °F 1032.1 in Calm     64 % 0.0 in
23:40 1.4 °F -2.9 °F 1030.7 in NE 3.2 mph 3.2 mph 73 % 0.0 in
23:43 6.0 °F -0.3 °F 1032.1 in Calm     64 % 0.0 in
23:44 6.0 °F -0.3 °F 1032.1 in Calm     64 % 0.0 in
23:48 6.0 °F -0.3 °F 1032.1 in Calm     64 % 0.0 in
23:50 6.0 °F -0.3 °F 1032.1 in Calm     64 % 0.0 in
23:55 6.0 °F -0.3 °F 1032.1 in Calm     64 % 0.0 in
23:56 6.0 °F -0.3 °F 1032.1 in Calm     64 % 0.0 in
Meteo Sesrovires
Elogis d' Weather Underground - 3.75 mb

Guio original per  Jim McMurry - jmcmurry@mwt.net Adaptat per a la plantilla per  Wim van der Kuil - Leuven-Template.eu

Trobareu la nostra informacio del temps tambe a:

Weather Underground

AWEKAS